createdAt,value
2017-12-04T00:00:05.467Z,3.3
2017-12-04T00:05:03.005Z,3.3
2017-12-04T00:10:02.988Z,3.4
2017-12-04T00:15:02.592Z,3.4
2017-12-04T00:20:23.242Z,3.4
2017-12-04T00:25:05.656Z,3.4
2017-12-04T00:30:30.611Z,3.3
2017-12-04T00:35:22.962Z,3.4
2017-12-04T00:40:02.726Z,3.4
2017-12-04T00:45:02.406Z,3.4
2017-12-04T00:50:03.379Z,3.4
2017-12-04T00:55:02.956Z,3.4
2017-12-04T01:00:02.419Z,3.4
2017-12-04T01:05:10.109Z,3.4
2017-12-04T01:10:12.671Z,3.5
2017-12-04T01:15:28.485Z,3.4
2017-12-04T01:20:05.212Z,3.5
2017-12-04T01:25:02.809Z,3.5
2017-12-04T01:30:08.303Z,3.5
2017-12-04T01:35:10.015Z,3.5
2017-12-04T01:40:07.451Z,3.5
2017-12-04T01:45:10.661Z,3.5
2017-12-04T01:50:05.028Z,3.6
2017-12-04T01:55:02.729Z,3.5
2017-12-04T02:00:08.271Z,3.6
2017-12-04T02:05:04.950Z,3.6
2017-12-04T02:10:05.008Z,3.6
2017-12-04T02:15:08.161Z,3.6
2017-12-04T02:20:05.150Z,3.7
2017-12-04T02:25:02.779Z,3.7
2017-12-04T02:30:20.963Z,3.6
2017-12-04T02:35:02.429Z,3.6
2017-12-04T02:40:07.535Z,3.6
2017-12-04T02:45:03.180Z,3.6
2017-12-04T02:50:02.680Z,3.7
2017-12-04T02:55:12.973Z,3.7
2017-12-04T03:00:21.023Z,3.7
2017-12-04T03:05:02.509Z,3.7
2017-12-04T03:10:05.089Z,3.8
2017-12-04T03:15:03.221Z,3.8
2017-12-04T03:20:02.696Z,3.9
2017-12-04T03:25:02.888Z,3.9
2017-12-04T03:30:03.375Z,4
2017-12-04T03:35:02.588Z,4
2017-12-04T03:40:05.108Z,4.1
2017-12-04T03:45:03.309Z,4.1
2017-12-04T03:50:07.906Z,4.2
2017-12-04T03:55:03.001Z,4.2
2017-12-04T04:00:07.571Z,4.2
2017-12-04T04:05:05.241Z,4.3
2017-12-04T04:10:02.679Z,4.3
2017-12-04T04:15:08.435Z,4.4
2017-12-04T04:20:02.830Z,4.4
2017-12-04T04:25:03.027Z,4.4
2017-12-04T04:30:07.536Z,4.4
2017-12-04T04:35:25.424Z,4.4
2017-12-04T04:40:17.890Z,4.4
2017-12-04T04:45:20.109Z,4.4
2017-12-04T04:50:02.873Z,4.4
2017-12-04T04:55:03.121Z,4.5
2017-12-04T05:00:02.609Z,4.5
2017-12-04T05:05:05.297Z,4.5
2017-12-04T05:10:07.797Z,4.5
2017-12-04T05:15:02.437Z,4.5
2017-12-04T05:20:05.431Z,4.6
2017-12-04T05:25:03.101Z,4.6
2017-12-04T05:30:10.183Z,4.5
2017-12-04T05:35:07.803Z,4.5
2017-12-04T05:40:05.300Z,4.5
2017-12-04T05:45:04.958Z,4.5
2017-12-04T05:50:02.938Z,4.4
2017-12-04T05:55:03.081Z,4.4
2017-12-04T06:00:07.634Z,4.4
2017-12-04T06:05:02.787Z,4.4
2017-12-04T06:10:07.831Z,4.4
2017-12-04T06:15:12.655Z,4.4
2017-12-04T06:20:03.029Z,4.5
2017-12-04T06:25:28.565Z,4.5
2017-12-04T06:30:02.767Z,4.5
2017-12-04T06:35:07.943Z,4.5
2017-12-04T06:40:05.490Z,4.5
2017-12-04T06:45:27.881Z,4.5
2017-12-04T06:50:05.536Z,4.5
2017-12-04T06:55:03.232Z,4.5
2017-12-04T07:00:07.826Z,4.5
2017-12-04T07:05:08.013Z,4.5
2017-12-04T07:10:02.949Z,4.6
2017-12-04T07:15:05.160Z,4.6
2017-12-04T07:20:23.481Z,4.6
2017-12-04T07:25:08.367Z,4.6
2017-12-04T07:30:05.439Z,4.6
2017-12-04T07:35:03.034Z,4.6
2017-12-04T07:40:05.498Z,4.7
2017-12-04T07:45:12.788Z,4.7
2017-12-04T07:50:05.638Z,4.7
2017-12-04T07:55:16.028Z,4.8
2017-12-04T08:00:05.365Z,4.8
2017-12-04T08:05:10.661Z,4.8
2017-12-04T08:10:05.631Z,4.9
2017-12-04T08:15:07.863Z,4.9
2017-12-04T08:20:03.218Z,4.9
2017-12-04T08:25:02.498Z,4.8
2017-12-04T08:30:02.938Z,4.7
2017-12-04T08:35:08.266Z,4.7
2017-12-04T08:40:08.195Z,4.8
2017-12-04T08:45:05.315Z,4.8
2017-12-04T08:55:20.223Z,4.8
2017-12-04T09:00:02.997Z,4.8
2017-12-04T09:05:05.696Z,5.1
2017-12-04T09:10:13.237Z,5.1
2017-12-04T09:15:15.453Z,5.4
2017-12-04T09:20:08.322Z,5.4
2017-12-04T09:25:05.016Z,5.5
2017-12-04T09:30:05.495Z,5.4
2017-12-04T09:35:03.208Z,5.4
2017-12-04T09:40:10.820Z,5.5
2017-12-04T09:45:05.447Z,5.5
2017-12-04T09:50:08.420Z,5.5
2017-12-04T09:55:02.565Z,5.5
2017-12-04T10:00:28.479Z,5.5
2017-12-04T10:05:03.296Z,5.5
2017-12-04T10:10:03.329Z,5.6
2017-12-04T10:15:05.559Z,5.7
2017-12-04T10:20:05.109Z,5.7
2017-12-04T10:25:02.792Z,5.7
2017-12-04T10:30:08.367Z,5.7
2017-12-04T10:35:07.554Z,5.7
2017-12-04T10:40:02.518Z,5.7
2017-12-04T10:45:05.776Z,5.7
2017-12-04T10:50:02.695Z,5.7
2017-12-04T10:55:05.477Z,5.7
2017-12-04T11:00:04.993Z,5.7
2017-12-04T11:05:02.638Z,5.7
2017-12-04T11:10:07.730Z,4.9
2017-12-04T11:15:08.438Z,4.7
2017-12-04T11:20:05.364Z,4.3
2017-12-04T11:25:08.107Z,3.9
2017-12-04T11:30:02.546Z,3.9
2017-12-04T11:35:10.254Z,3.6
2017-12-04T11:40:05.203Z,3.6
2017-12-04T11:45:03.226Z,3.6
2017-12-04T11:50:05.266Z,3.4
2017-12-04T11:55:02.836Z,3.3
2017-12-04T12:00:05.764Z,3.4
2017-12-04T12:05:05.881Z,3.6
2017-12-04T12:10:05.829Z,3.7
2017-12-04T12:15:02.807Z,3.7
2017-12-04T12:20:05.766Z,3.9
2017-12-04T12:25:03.319Z,3.9
2017-12-04T12:30:02.780Z,4.1
2017-12-04T12:35:20.641Z,4.4
2017-12-04T12:40:02.818Z,4.4
2017-12-04T12:45:10.094Z,4.5
2017-12-04T12:50:02.992Z,4.6
2017-12-04T12:55:03.188Z,4.7
2017-12-04T13:00:25.501Z,5
2017-12-04T13:05:05.458Z,5.4
2017-12-04T13:10:07.984Z,5.7
2017-12-04T13:15:15.372Z,5.8
2017-12-04T13:20:21.008Z,5.8
2017-12-04T13:25:02.596Z,5.8
2017-12-04T13:30:03.109Z,5.7
2017-12-04T13:35:07.479Z,5.6
2017-12-04T13:40:02.458Z,5.6
2017-12-04T13:45:08.234Z,5.6
2017-12-04T13:50:02.747Z,5.6
2017-12-04T13:55:08.008Z,5.6
2017-12-04T14:00:22.850Z,5.6
2017-12-04T14:05:05.319Z,5.5
2017-12-04T14:10:30.582Z,5.4
2017-12-04T14:15:07.568Z,5.2
2017-12-04T14:20:08.058Z,5.1
2017-12-04T14:25:05.790Z,5
2017-12-04T14:30:28.115Z,4.9
2017-12-04T14:35:05.429Z,4.8
2017-12-04T14:40:05.480Z,4.7
2017-12-04T14:45:07.699Z,4.6
2017-12-04T14:50:05.636Z,4.6
2017-12-04T14:55:05.859Z,4.5
2017-12-04T15:00:17.958Z,4.5
2017-12-04T15:05:08.094Z,4.4
2017-12-04T15:10:05.539Z,4.3
2017-12-04T15:15:02.726Z,4.3
2017-12-04T15:20:23.424Z,4.2
2017-12-04T15:25:12.538Z,4.2
2017-12-04T15:30:02.857Z,4.2
2017-12-04T15:35:10.666Z,4
2017-12-04T15:40:05.577Z,3.9
2017-12-04T15:45:02.736Z,3.9
2017-12-04T15:50:08.255Z,3.8
2017-12-04T15:55:04.966Z,3.8
2017-12-04T16:00:10.478Z,3.7
2017-12-04T16:05:03.070Z,3.8
2017-12-04T16:10:05.655Z,3.7
2017-12-04T16:15:05.338Z,3.7
2017-12-04T16:20:05.769Z,3.7
2017-12-04T16:25:07.496Z,3.7
2017-12-04T16:30:05.458Z,3.6
2017-12-04T16:35:05.578Z,3.5
2017-12-04T16:40:03.026Z,3.5
2017-12-04T16:45:05.266Z,3.3
2017-12-04T16:50:05.746Z,3.3
2017-12-04T16:55:03.380Z,3.2
2017-12-04T17:00:02.828Z,3.2
2017-12-04T17:05:03.008Z,3.2
2017-12-04T17:10:02.978Z,3.2
2017-12-04T17:15:02.657Z,3.2
2017-12-04T17:20:03.056Z,3.3
2017-12-04T17:25:13.407Z,3.2
2017-12-04T17:30:02.749Z,3.2
2017-12-04T17:35:02.927Z,3.2
2017-12-04T17:40:05.437Z,3.2
2017-12-04T17:45:02.591Z,3.2
2017-12-04T17:50:02.965Z,3.2
2017-12-04T17:55:03.129Z,3.1
2017-12-04T18:00:05.097Z,3.1
2017-12-04T18:05:05.286Z,3
2017-12-04T18:10:05.280Z,3
2017-12-04T18:15:03.368Z,3
2017-12-04T18:20:02.898Z,3.1
2017-12-04T18:25:08.104Z,3.1
2017-12-04T18:30:10.163Z,3.1
2017-12-04T18:35:15.292Z,3.2
2017-12-04T18:40:02.578Z,3.2
2017-12-04T18:45:03.260Z,3.1
2017-12-04T18:50:02.991Z,3.1
2017-12-04T18:55:05.377Z,3.2
2017-12-04T19:00:03.300Z,3.2
2017-12-04T19:05:07.544Z,3.1
2017-12-04T19:10:02.448Z,3.2
2017-12-04T19:15:08.126Z,3.2
2017-12-04T19:20:05.116Z,3.2
2017-12-04T19:25:20.455Z,3.3
2017-12-04T19:30:05.725Z,3.3
2017-12-04T19:35:03.222Z,3.3
2017-12-04T19:40:05.839Z,3.2
2017-12-04T19:45:05.357Z,3.2
2017-12-04T19:50:10.956Z,3.2
2017-12-04T19:55:02.508Z,3.1
2017-12-04T20:00:08.005Z,3.2
2017-12-04T20:05:03.148Z,3.2
2017-12-04T20:10:05.688Z,3.1
2017-12-04T20:15:02.806Z,3.1
2017-12-04T20:20:10.872Z,3
2017-12-04T20:25:10.005Z,3
2017-12-04T20:30:02.852Z,3
2017-12-04T20:35:05.537Z,3.1
2017-12-04T20:40:08.108Z,3.1
2017-12-04T20:45:10.173Z,3.1
2017-12-04T20:50:05.604Z,3.1
2017-12-04T20:55:05.727Z,3.1
2017-12-04T21:00:02.646Z,3.1
2017-12-04T21:05:02.810Z,3.1
2017-12-04T21:10:05.277Z,3.1
2017-12-04T21:15:02.432Z,3.1
2017-12-04T21:20:02.893Z,3.1
2017-12-04T21:25:10.643Z,3.1
2017-12-04T21:30:04.978Z,3.1
2017-12-04T21:35:05.137Z,3.2
2017-12-04T21:40:05.119Z,3.2
2017-12-04T21:45:03.232Z,3.2
2017-12-04T21:50:20.364Z,3.4
2017-12-04T21:55:17.965Z,3.4
2017-12-04T22:00:13.393Z,3.3
2017-12-04T22:05:02.391Z,3.3
2017-12-04T22:10:05.946Z,3.4
2017-12-04T22:15:02.987Z,3.4
2017-12-04T22:20:02.579Z,3.5
2017-12-04T22:25:05.216Z,3.4
2017-12-04T22:30:15.739Z,3.3
2017-12-04T22:35:05.826Z,3.3
2017-12-04T22:40:05.729Z,3.3
2017-12-04T22:45:02.840Z,3.3
2017-12-04T22:50:08.305Z,3.3
2017-12-04T22:55:07.452Z,3.3
2017-12-04T23:00:10.482Z,3.4
2017-12-04T23:05:08.094Z,3.4
2017-12-04T23:10:08.052Z,3.5
2017-12-04T23:15:02.680Z,3.5
2017-12-04T23:20:03.117Z,3.6
2017-12-04T23:25:03.329Z,3.6
2017-12-04T23:30:05.342Z,3.7
2017-12-04T23:35:05.497Z,3.7
2017-12-04T23:40:08.056Z,3.7
2017-12-04T23:45:02.639Z,3.7
2017-12-04T23:50:03.270Z,3.7
2017-12-04T23:55:03.358Z,3.8
